sensor_id;sensor_type;location;lat;lon;timestamp;temperature;humidity
33827;DHT22;20128;45.582;5.298;2023-07-31T00:01:55;23.10;56.90
33827;DHT22;20128;45.582;5.298;2023-07-31T00:04:21;23.00;56.90
33827;DHT22;20128;45.582;5.298;2023-07-31T00:06:46;22.80;57.20
33827;DHT22;20128;45.582;5.298;2023-07-31T00:09:12;22.60;57.40
33827;DHT22;20128;45.582;5.298;2023-07-31T00:11:38;22.60;57.60
33827;DHT22;20128;45.582;5.298;2023-07-31T00:14:04;22.60;57.50
33827;DHT22;20128;45.582;5.298;2023-07-31T00:16:29;22.70;57.60
33827;DHT22;20128;45.582;5.298;2023-07-31T00:18:55;22.70;57.50
33827;DHT22;20128;45.582;5.298;2023-07-31T00:21:20;22.50;57.70
33827;DHT22;20128;45.582;5.298;2023-07-31T00:23:46;22.40;58.00
33827;DHT22;20128;45.582;5.298;2023-07-31T00:26:12;22.10;58.80
33827;DHT22;20128;45.582;5.298;2023-07-31T00:28:37;22.20;59.50
33827;DHT22;20128;45.582;5.298;2023-07-31T00:31:03;22.30;59.30
33827;DHT22;20128;45.582;5.298;2023-07-31T00:33:31;22.40;59.20
33827;DHT22;20128;45.582;5.298;2023-07-31T00:35:56;22.40;59.30
33827;DHT22;20128;45.582;5.298;2023-07-31T00:38:22;22.40;59.00
33827;DHT22;20128;45.582;5.298;2023-07-31T00:40:48;22.30;59.10
33827;DHT22;20128;45.582;5.298;2023-07-31T00:43:13;22.40;58.90
33827;DHT22;20128;45.582;5.298;2023-07-31T00:45:39;22.30;59.00
33827;DHT22;20128;45.582;5.298;2023-07-31T00:48:05;22.30;58.90
33827;DHT22;20128;45.582;5.298;2023-07-31T00:50:31;22.30;58.90
33827;DHT22;20128;45.582;5.298;2023-07-31T00:52:58;22.30;58.90
33827;DHT22;20128;45.582;5.298;2023-07-31T00:55:24;22.20;59.00
33827;DHT22;20128;45.582;5.298;2023-07-31T00:57:50;22.00;59.50
33827;DHT22;20128;45.582;5.298;2023-07-31T01:00:18;21.90;59.60
33827;DHT22;20128;45.582;5.298;2023-07-31T01:02:44;22.00;59.70
33827;DHT22;20128;45.582;5.298;2023-07-31T01:05:10;22.00;59.60
33827;DHT22;20128;45.582;5.298;2023-07-31T01:07:47;22.00;59.50
33827;DHT22;20128;45.582;5.298;2023-07-31T01:10:26;22.00;59.60
33827;DHT22;20128;45.582;5.298;2023-07-31T01:12:56;21.60;60.00
33827;DHT22;20128;45.582;5.298;2023-07-31T01:15:23;21.40;60.50
33827;DHT22;20128;45.582;5.298;2023-07-31T01:17:48;21.40;60.70
33827;DHT22;20128;45.582;5.298;2023-07-31T01:20:20;21.40;60.70
33827;DHT22;20128;45.582;5.298;2023-07-31T01:28:05;20.50;62.20
33827;DHT22;20128;45.582;5.298;2023-07-31T01:30:34;20.40;63.20
33827;DHT22;20128;45.582;5.298;2023-07-31T01:33:03;20.60;63.30
33827;DHT22;20128;45.582;5.298;2023-07-31T01:35:37;20.70;62.70
33827;DHT22;20128;45.582;5.298;2023-07-31T01:38:04;20.80;63.20
33827;DHT22;20128;45.582;5.298;2023-07-31T01:40:30;21.00;63.00
33827;DHT22;20128;45.582;5.298;2023-07-31T01:42:55;21.10;62.90
33827;DHT22;20128;45.582;5.298;2023-07-31T01:45:21;21.20;62.70
33827;DHT22;20128;45.582;5.298;2023-07-31T01:47:47;21.30;62.30
33827;DHT22;20128;45.582;5.298;2023-07-31T01:50:12;21.30;62.00
33827;DHT22;20128;45.582;5.298;2023-07-31T01:52:38;21.40;61.90
33827;DHT22;20128;45.582;5.298;2023-07-31T01:55:04;21.30;61.80
33827;DHT22;20128;45.582;5.298;2023-07-31T01:57:30;21.40;61.60
33827;DHT22;20128;45.582;5.298;2023-07-31T01:59:55;21.40;61.30
33827;DHT22;20128;45.582;5.298;2023-07-31T02:02:22;21.40;61.50
33827;DHT22;20128;45.582;5.298;2023-07-31T02:04:48;21.40;61.60
33827;DHT22;20128;45.582;5.298;2023-07-31T02:07:14;21.40;61.30
33827;DHT22;20128;45.582;5.298;2023-07-31T02:09:40;21.50;61.40
33827;DHT22;20128;45.582;5.298;2023-07-31T02:12:05;21.40;61.30
33827;DHT22;20128;45.582;5.298;2023-07-31T02:14:34;21.40;61.00
33827;DHT22;20128;45.582;5.298;2023-07-31T02:16:59;21.40;61.30
33827;DHT22;20128;45.582;5.298;2023-07-31T02:19:25;21.30;61.70
33827;DHT22;20128;45.582;5.298;2023-07-31T02:21:51;21.30;61.50
33827;DHT22;20128;45.582;5.298;2023-07-31T02:24:16;21.30;61.20
33827;DHT22;20128;45.582;5.298;2023-07-31T02:26:42;21.10;61.50
33827;DHT22;20128;45.582;5.298;2023-07-31T02:29:08;21.10;61.80
33827;DHT22;20128;45.582;5.298;2023-07-31T02:31:34;21.10;62.80
33827;DHT22;20128;45.582;5.298;2023-07-31T02:33:59;21.10;62.10
33827;DHT22;20128;45.582;5.298;2023-07-31T02:36:25;21.10;61.60
33827;DHT22;20128;45.582;5.298;2023-07-31T02:38:51;21.10;61.90
33827;DHT22;20128;45.582;5.298;2023-07-31T02:41:16;21.10;62.10
33827;DHT22;20128;45.582;5.298;2023-07-31T02:43:43;21.00;62.10
33827;DHT22;20128;45.582;5.298;2023-07-31T02:46:08;21.00;62.10
33827;DHT22;20128;45.582;5.298;2023-07-31T02:48:34;21.10;62.80
33827;DHT22;20128;45.582;5.298;2023-07-31T02:50:59;21.10;62.30
33827;DHT22;20128;45.582;5.298;2023-07-31T02:53:25;21.00;62.10
33827;DHT22;20128;45.582;5.298;2023-07-31T02:55:50;21.00;62.00
33827;DHT22;20128;45.582;5.298;2023-07-31T02:58:16;21.00;62.20
33827;DHT22;20128;45.582;5.298;2023-07-31T03:00:43;21.00;62.40
33827;DHT22;20128;45.582;5.298;2023-07-31T03:03:08;21.00;62.20
33827;DHT22;20128;45.582;5.298;2023-07-31T03:05:34;21.00;62.00
33827;DHT22;20128;45.582;5.298;2023-07-31T03:08:00;21.00;62.10
33827;DHT22;20128;45.582;5.298;2023-07-31T03:10:25;21.00;62.50
33827;DHT22;20128;45.582;5.298;2023-07-31T03:12:51;20.90;62.60
33827;DHT22;20128;45.582;5.298;2023-07-31T03:15:16;20.90;62.60
33827;DHT22;20128;45.582;5.298;2023-07-31T03:17:42;20.90;62.60
33827;DHT22;20128;45.582;5.298;2023-07-31T03:20:08;20.80;63.10
33827;DHT22;20128;45.582;5.298;2023-07-31T03:22:34;20.80;63.00
33827;DHT22;20128;45.582;5.298;2023-07-31T03:25:03;20.70;62.90
33827;DHT22;20128;45.582;5.298;2023-07-31T03:27:29;20.60;63.00
33827;DHT22;20128;45.582;5.298;2023-07-31T03:29:55;20.60;63.00
33827;DHT22;20128;45.582;5.298;2023-07-31T03:32:20;20.40;62.90
33827;DHT22;20128;45.582;5.298;2023-07-31T03:34:46;20.20;63.60
33827;DHT22;20128;45.582;5.298;2023-07-31T03:37:12;20.20;63.80
33827;DHT22;20128;45.582;5.298;2023-07-31T03:39:37;20.20;64.20
33827;DHT22;20128;45.582;5.298;2023-07-31T03:42:03;20.30;64.20
33827;DHT22;20128;45.582;5.298;2023-07-31T03:44:29;20.40;64.10
33827;DHT22;20128;45.582;5.298;2023-07-31T03:46:55;20.30;63.90
33827;DHT22;20128;45.582;5.298;2023-07-31T03:49:20;20.00;64.20
33827;DHT22;20128;45.582;5.298;2023-07-31T03:51:46;19.90;64.10
33827;DHT22;20128;45.582;5.298;2023-07-31T03:54:12;19.50;64.70
33827;DHT22;20128;45.582;5.298;2023-07-31T03:56:38;19.30;65.10
33827;DHT22;20128;45.582;5.298;2023-07-31T03:59:04;19.20;65.90
33827;DHT22;20128;45.582;5.298;2023-07-31T04:01:30;19.30;66.00
33827;DHT22;20128;45.582;5.298;2023-07-31T04:03:55;19.50;66.00
33827;DHT22;20128;45.582;5.298;2023-07-31T04:06:21;19.70;65.70
33827;DHT22;20128;45.582;5.298;2023-07-31T04:08:47;19.80;65.70
33827;DHT22;20128;45.582;5.298;2023-07-31T04:11:12;19.90;65.20
33827;DHT22;20128;45.582;5.298;2023-07-31T04:13:38;19.90;65.10
33827;DHT22;20128;45.582;5.298;2023-07-31T04:16:04;20.00;65.20
33827;DHT22;20128;45.582;5.298;2023-07-31T04:18:30;20.00;65.30
33827;DHT22;20128;45.582;5.298;2023-07-31T04:20:59;20.00;65.30
33827;DHT22;20128;45.582;5.298;2023-07-31T04:23:26;20.00;65.30
33827;DHT22;20128;45.582;5.298;2023-07-31T04:25:52;19.90;65.30
33827;DHT22;20128;45.582;5.298;2023-07-31T04:28:17;19.80;65.50
33827;DHT22;20128;45.582;5.298;2023-07-31T04:30:43;19.80;65.50
33827;DHT22;20128;45.582;5.298;2023-07-31T04:33:09;19.90;65.70
33827;DHT22;20128;45.582;5.298;2023-07-31T04:35:35;20.00;65.80
33827;DHT22;20128;45.582;5.298;2023-07-31T04:38:00;20.00;65.50
33827;DHT22;20128;45.582;5.298;2023-07-31T04:40:26;20.00;65.60
33827;DHT22;20128;45.582;5.298;2023-07-31T04:42:52;20.10;65.60
33827;DHT22;20128;45.582;5.298;2023-07-31T04:45:18;20.10;65.50
33827;DHT22;20128;45.582;5.298;2023-07-31T04:47:44;20.00;65.20
33827;DHT22;20128;45.582;5.298;2023-07-31T04:50:10;20.10;65.70
33827;DHT22;20128;45.582;5.298;2023-07-31T04:52:36;20.10;65.50
33827;DHT22;20128;45.582;5.298;2023-07-31T04:55:01;20.10;65.20
33827;DHT22;20128;45.582;5.298;2023-07-31T04:57:27;19.60;65.10
33827;DHT22;20128;45.582;5.298;2023-07-31T04:59:53;19.30;66.20
33827;DHT22;20128;45.582;5.298;2023-07-31T05:02:18;19.30;66.50
33827;DHT22;20128;45.582;5.298;2023-07-31T05:04:44;19.30;66.40
33827;DHT22;20128;45.582;5.298;2023-07-31T05:07:10;19.30;66.50
33827;DHT22;20128;45.582;5.298;2023-07-31T05:09:35;19.30;66.30
33827;DHT22;20128;45.582;5.298;2023-07-31T05:12:01;19.30;66.00
33827;DHT22;20128;45.582;5.298;2023-07-31T05:14:26;18.90;66.40
33827;DHT22;20128;45.582;5.298;2023-07-31T05:16:52;18.60;67.30
33827;DHT22;20128;45.582;5.298;2023-07-31T05:19:18;18.40;68.00
33827;DHT22;20128;45.582;5.298;2023-07-31T05:21:44;18.50;68.50
33827;DHT22;20128;45.582;5.298;2023-07-31T05:24:10;18.70;68.40
33827;DHT22;20128;45.582;5.298;2023-07-31T05:26:36;18.90;68.00
33827;DHT22;20128;45.582;5.298;2023-07-31T05:29:03;18.90;68.00
33827;DHT22;20128;45.582;5.298;2023-07-31T05:31:29;18.90;68.10
33827;DHT22;20128;45.582;5.298;2023-07-31T05:33:54;19.00;68.00
33827;DHT22;20128;45.582;5.298;2023-07-31T05:36:20;19.00;68.00
33827;DHT22;20128;45.582;5.298;2023-07-31T05:38:46;19.20;68.00
33827;DHT22;20128;45.582;5.298;2023-07-31T05:41:14;19.30;67.70
33827;DHT22;20128;45.582;5.298;2023-07-31T05:43:40;19.40;67.40
33827;DHT22;20128;45.582;5.298;2023-07-31T05:46:06;19.40;67.60
33827;DHT22;20128;45.582;5.298;2023-07-31T05:48:32;19.30;68.50
33827;DHT22;20128;45.582;5.298;2023-07-31T05:50:59;19.40;67.70
33827;DHT22;20128;45.582;5.298;2023-07-31T05:53:25;19.40;67.10
33827;DHT22;20128;45.582;5.298;2023-07-31T05:55:51;19.40;67.10
33827;DHT22;20128;45.582;5.298;2023-07-31T05:58:16;19.40;67.10
33827;DHT22;20128;45.582;5.298;2023-07-31T06:00:42;19.40;67.10
33827;DHT22;20128;45.582;5.298;2023-07-31T06:03:08;19.40;67.60
33827;DHT22;20128;45.582;5.298;2023-07-31T06:05:33;19.50;67.30
33827;DHT22;20128;45.582;5.298;2023-07-31T06:07:59;19.60;66.90
33827;DHT22;20128;45.582;5.298;2023-07-31T06:10:25;19.70;66.60
33827;DHT22;20128;45.582;5.298;2023-07-31T06:12:51;19.70;66.50
33827;DHT22;20128;45.582;5.298;2023-07-31T06:15:16;19.50;66.60
33827;DHT22;20128;45.582;5.298;2023-07-31T06:17:44;19.30;67.40
33827;DHT22;20128;45.582;5.298;2023-07-31T06:20:10;19.20;67.70
33827;DHT22;20128;45.582;5.298;2023-07-31T06:22:36;19.00;67.90
33827;DHT22;20128;45.582;5.298;2023-07-31T06:25:02;18.90;68.50
33827;DHT22;20128;45.582;5.298;2023-07-31T06:27:27;19.00;69.00
33827;DHT22;20128;45.582;5.298;2023-07-31T06:29:53;19.00;68.80
33827;DHT22;20128;45.582;5.298;2023-07-31T06:32:19;18.80;69.00
33827;DHT22;20128;45.582;5.298;2023-07-31T06:34:44;18.80;69.60
33827;DHT22;20128;45.582;5.298;2023-07-31T06:37:10;19.00;69.40
33827;DHT22;20128;45.582;5.298;2023-07-31T06:39:36;19.10;69.20
33827;DHT22;20128;45.582;5.298;2023-07-31T06:42:03;19.40;68.50
33827;DHT22;20128;45.582;5.298;2023-07-31T06:44:28;19.60;67.90
33827;DHT22;20128;45.582;5.298;2023-07-31T06:46:54;19.90;68.20
33827;DHT22;20128;45.582;5.298;2023-07-31T06:49:20;20.00;67.10
33827;DHT22;20128;45.582;5.298;2023-07-31T06:51:45;20.20;66.70
33827;DHT22;20128;45.582;5.298;2023-07-31T06:54:11;20.40;66.30
33827;DHT22;20128;45.582;5.298;2023-07-31T06:56:37;20.40;66.00
33827;DHT22;20128;45.582;5.298;2023-07-31T06:59:03;20.20;65.90
33827;DHT22;20128;45.582;5.298;2023-07-31T07:01:28;20.00;66.10
33827;DHT22;20128;45.582;5.298;2023-07-31T07:03:54;19.90;66.40
33827;DHT22;20128;45.582;5.298;2023-07-31T07:06:21;20.00;66.60
33827;DHT22;20128;45.582;5.298;2023-07-31T07:08:48;20.20;66.60
33827;DHT22;20128;45.582;5.298;2023-07-31T07:11:13;20.60;66.20
33827;DHT22;20128;45.582;5.298;2023-07-31T07:13:39;20.90;65.60
33827;DHT22;20128;45.582;5.298;2023-07-31T07:16:05;21.30;65.10
33827;DHT22;20128;45.582;5.298;2023-07-31T07:18:30;21.60;64.10
33827;DHT22;20128;45.582;5.298;2023-07-31T07:20:56;21.80;63.30
33827;DHT22;20128;45.582;5.298;2023-07-31T07:23:23;21.90;62.10
33827;DHT22;20128;45.582;5.298;2023-07-31T07:25:49;22.00;62.00
33827;DHT22;20128;45.582;5.298;2023-07-31T07:28:15;22.20;61.80
33827;DHT22;20128;45.582;5.298;2023-07-31T07:30:41;22.40;60.70
33827;DHT22;20128;45.582;5.298;2023-07-31T07:33:06;22.40;59.40
33827;DHT22;20128;45.582;5.298;2023-07-31T07:35:36;22.40;59.10
33827;DHT22;20128;45.582;5.298;2023-07-31T07:38:04;22.40;58.60
33827;DHT22;20128;45.582;5.298;2023-07-31T07:40:30;22.40;59.10
33827;DHT22;20128;45.582;5.298;2023-07-31T07:42:56;22.50;58.70
33827;DHT22;20128;45.582;5.298;2023-07-31T07:45:21;22.50;58.80
33827;DHT22;20128;45.582;5.298;2023-07-31T07:47:47;22.60;58.70
33827;DHT22;20128;45.582;5.298;2023-07-31T07:50:12;22.70;58.00
33827;DHT22;20128;45.582;5.298;2023-07-31T07:52:38;22.70;57.10
33827;DHT22;20128;45.582;5.298;2023-07-31T07:55:04;22.70;57.90
33827;DHT22;20128;45.582;5.298;2023-07-31T07:57:30;22.70;58.20
33827;DHT22;20128;45.582;5.298;2023-07-31T07:59:55;22.80;56.80
33827;DHT22;20128;45.582;5.298;2023-07-31T08:02:22;22.80;56.90
33827;DHT22;20128;45.582;5.298;2023-07-31T08:04:48;22.80;56.40
33827;DHT22;20128;45.582;5.298;2023-07-31T08:07:14;22.90;56.70
33827;DHT22;20128;45.582;5.298;2023-07-31T08:09:39;22.90;56.80
33827;DHT22;20128;45.582;5.298;2023-07-31T08:12:06;23.00;57.30
33827;DHT22;20128;45.582;5.298;2023-07-31T08:14:32;23.10;57.40
33827;DHT22;20128;45.582;5.298;2023-07-31T08:16:59;23.20;56.20
33827;DHT22;20128;45.582;5.298;2023-07-31T08:19:24;23.30;55.80
33827;DHT22;20128;45.582;5.298;2023-07-31T08:21:50;23.30;55.10
33827;DHT22;20128;45.582;5.298;2023-07-31T08:24:16;23.40;55.40
33827;DHT22;20128;45.582;5.298;2023-07-31T08:26:42;23.40;55.10
33827;DHT22;20128;45.582;5.298;2023-07-31T08:29:08;23.50;54.70
33827;DHT22;20128;45.582;5.298;2023-07-31T08:31:33;23.60;54.30
33827;DHT22;20128;45.582;5.298;2023-07-31T08:34:00;23.60;53.40
33827;DHT22;20128;45.582;5.298;2023-07-31T08:36:25;23.60;52.70
33827;DHT22;20128;45.582;5.298;2023-07-31T08:38:51;23.60;52.60
33827;DHT22;20128;45.582;5.298;2023-07-31T08:41:17;23.50;52.80
33827;DHT22;20128;45.582;5.298;2023-07-31T08:43:45;23.50;52.50
33827;DHT22;20128;45.582;5.298;2023-07-31T08:46:10;23.60;51.90
33827;DHT22;20128;45.582;5.298;2023-07-31T08:48:37;23.60;51.90
33827;DHT22;20128;45.582;5.298;2023-07-31T08:51:04;23.60;52.90
33827;DHT22;20128;45.582;5.298;2023-07-31T08:53:29;23.80;53.30
33827;DHT22;20128;45.582;5.298;2023-07-31T08:55:56;23.90;52.80
33827;DHT22;20128;45.582;5.298;2023-07-31T08:58:24;24.10;53.00
33827;DHT22;20128;45.582;5.298;2023-07-31T09:00:51;24.20;53.10
33827;DHT22;20128;45.582;5.298;2023-07-31T09:03:18;24.30;52.20
33827;DHT22;20128;45.582;5.298;2023-07-31T09:05:46;24.50;52.30
33827;DHT22;20128;45.582;5.298;2023-07-31T09:08:13;24.60;52.40
33827;DHT22;20128;45.582;5.298;2023-07-31T09:10:41;24.80;52.30
33827;DHT22;20128;45.582;5.298;2023-07-31T09:13:07;25.00;51.00
33827;DHT22;20128;45.582;5.298;2023-07-31T09:15:33;25.10;50.90
33827;DHT22;20128;45.582;5.298;2023-07-31T09:18:01;25.20;51.10
33827;DHT22;20128;45.582;5.298;2023-07-31T09:20:27;25.30;50.40
33827;DHT22;20128;45.582;5.298;2023-07-31T09:22:53;25.40;50.70
33827;DHT22;20128;45.582;5.298;2023-07-31T09:27:52;25.50;49.20
33827;DHT22;20128;45.582;5.298;2023-07-31T09:30:19;25.60;49.60
33827;DHT22;20128;45.582;5.298;2023-07-31T09:32:45;25.70;50.10
33827;DHT22;20128;45.582;5.298;2023-07-31T09:35:31;25.80;49.40
33827;DHT22;20128;45.582;5.298;2023-07-31T09:38:05;26.00;49.50
33827;DHT22;20128;45.582;5.298;2023-07-31T09:40:36;26.10;49.30
33827;DHT22;20128;45.582;5.298;2023-07-31T09:43:06;26.30;49.60
33827;DHT22;20128;45.582;5.298;2023-07-31T09:45:38;26.50;49.00
33827;DHT22;20128;45.582;5.298;2023-07-31T09:48:08;26.60;48.30
33827;DHT22;20128;45.582;5.298;2023-07-31T09:50:40;26.80;47.40
33827;DHT22;20128;45.582;5.298;2023-07-31T09:53:08;26.90;46.80
33827;DHT22;20128;45.582;5.298;2023-07-31T09:55:34;26.90;46.90
33827;DHT22;20128;45.582;5.298;2023-07-31T09:58:05;26.90;47.00
33827;DHT22;20128;45.582;5.298;2023-07-31T10:00:31;27.00;46.90
33827;DHT22;20128;45.582;5.298;2023-07-31T10:02:59;27.00;47.10
33827;DHT22;20128;45.582;5.298;2023-07-31T10:05:34;27.10;47.50
33827;DHT22;20128;45.582;5.298;2023-07-31T10:08:00;27.20;47.30
33827;DHT22;20128;45.582;5.298;2023-07-31T10:10:26;27.30;47.10
33827;DHT22;20128;45.582;5.298;2023-07-31T10:12:54;27.50;46.70
33827;DHT22;20128;45.582;5.298;2023-07-31T10:15:21;27.60;46.60
33827;DHT22;20128;45.582;5.298;2023-07-31T10:17:48;27.80;46.30
33827;DHT22;20128;45.582;5.298;2023-07-31T10:20:15;27.90;45.90
33827;DHT22;20128;45.582;5.298;2023-07-31T10:22:44;28.00;45.50
33827;DHT22;20128;45.582;5.298;2023-07-31T10:25:11;28.00;45.00
33827;DHT22;20128;45.582;5.298;2023-07-31T10:27:39;28.10;44.90
33827;DHT22;20128;45.582;5.298;2023-07-31T10:30:08;28.20;45.30
33827;DHT22;20128;45.582;5.298;2023-07-31T10:32:35;28.40;45.40
33827;DHT22;20128;45.582;5.298;2023-07-31T10:35:03;28.50;45.40
33827;DHT22;20128;45.582;5.298;2023-07-31T10:37:35;28.70;44.90
33827;DHT22;20128;45.582;5.298;2023-07-31T10:40:13;28.90;44.50
33827;DHT22;20128;45.582;5.298;2023-07-31T10:42:53;29.00;44.20
33827;DHT22;20128;45.582;5.298;2023-07-31T10:48:01;29.30;43.60
33827;DHT22;20128;45.582;5.298;2023-07-31T10:50:28;29.40;43.30
33827;DHT22;20128;45.582;5.298;2023-07-31T10:52:56;29.50;42.90
33827;DHT22;20128;45.582;5.298;2023-07-31T10:55:26;29.60;43.10
33827;DHT22;20128;45.582;5.298;2023-07-31T10:57:57;29.80;42.80
33827;DHT22;20128;45.582;5.298;2023-07-31T11:00:28;29.90;43.00
33827;DHT22;20128;45.582;5.298;2023-07-31T11:11:14;30.20;40.70
33827;DHT22;20128;45.582;5.298;2023-07-31T11:13:54;30.30;40.70
33827;DHT22;20128;45.582;5.298;2023-07-31T11:16:24;30.40;41.20
33827;DHT22;20128;45.582;5.298;2023-07-31T11:18:51;30.50;41.10
33827;DHT22;20128;45.582;5.298;2023-07-31T11:21:19;30.60;40.90
33827;DHT22;20128;45.582;5.298;2023-07-31T11:23:52;30.50;39.80
33827;DHT22;20128;45.582;5.298;2023-07-31T11:26:18;30.60;40.00
33827;DHT22;20128;45.582;5.298;2023-07-31T11:28:47;30.50;40.50
33827;DHT22;20128;45.582;5.298;2023-07-31T11:31:13;30.40;39.70
33827;DHT22;20128;45.582;5.298;2023-07-31T11:33:38;30.30;38.90
33827;DHT22;20128;45.582;5.298;2023-07-31T11:36:04;30.30;39.10
33827;DHT22;20128;45.582;5.298;2023-07-31T11:38:32;30.40;39.70
33827;DHT22;20128;45.582;5.298;2023-07-31T11:41:00;30.40;40.10
33827;DHT22;20128;45.582;5.298;2023-07-31T11:43:28;30.40;40.20
33827;DHT22;20128;45.582;5.298;2023-07-31T11:45:58;30.50;39.90
33827;DHT22;20128;45.582;5.298;2023-07-31T11:48:29;30.60;39.50
33827;DHT22;20128;45.582;5.298;2023-07-31T11:50:58;30.70;39.60
33827;DHT22;20128;45.582;5.298;2023-07-31T11:53:43;30.80;39.00
33827;DHT22;20128;45.582;5.298;2023-07-31T11:56:10;30.90;39.10
33827;DHT22;20128;45.582;5.298;2023-07-31T11:58:38;30.80;38.60
33827;DHT22;20128;45.582;5.298;2023-07-31T12:01:05;30.80;39.20
33827;DHT22;20128;45.582;5.298;2023-07-31T12:03:31;30.80;39.70
33827;DHT22;20128;45.582;5.298;2023-07-31T12:05:58;30.80;39.40
33827;DHT22;20128;45.582;5.298;2023-07-31T12:08:25;30.90;39.60
33827;DHT22;20128;45.582;5.298;2023-07-31T12:10:52;31.00;39.40
33827;DHT22;20128;45.582;5.298;2023-07-31T12:13:25;31.20;39.30
33827;DHT22;20128;45.582;5.298;2023-07-31T12:15:56;31.20;39.30
33827;DHT22;20128;45.582;5.298;2023-07-31T12:18:26;31.10;39.00
33827;DHT22;20128;45.582;5.298;2023-07-31T12:20:58;31.10;39.00
33827;DHT22;20128;45.582;5.298;2023-07-31T12:23:28;31.10;38.90
33827;DHT22;20128;45.582;5.298;2023-07-31T12:26:07;31.10;38.70
33827;DHT22;20128;45.582;5.298;2023-07-31T12:28:41;31.20;38.50
33827;DHT22;20128;45.582;5.298;2023-07-31T12:31:08;31.30;38.30
33827;DHT22;20128;45.582;5.298;2023-07-31T12:33:35;31.30;38.30
33827;DHT22;20128;45.582;5.298;2023-07-31T12:36:03;31.40;38.20
33827;DHT22;20128;45.582;5.298;2023-07-31T12:38:30;31.50;38.20
33827;DHT22;20128;45.582;5.298;2023-07-31T12:40:56;31.50;38.30
33827;DHT22;20128;45.582;5.298;2023-07-31T12:43:22;31.50;38.10
33827;DHT22;20128;45.582;5.298;2023-07-31T12:45:47;31.50;38.30
33827;DHT22;20128;45.582;5.298;2023-07-31T12:48:13;31.50;38.60
33827;DHT22;20128;45.582;5.298;2023-07-31T12:50:39;31.60;38.60
33827;DHT22;20128;45.582;5.298;2023-07-31T12:53:05;31.60;38.20
33827;DHT22;20128;45.582;5.298;2023-07-31T12:55:32;31.60;37.50
33827;DHT22;20128;45.582;5.298;2023-07-31T12:58:00;31.60;37.80
33827;DHT22;20128;45.582;5.298;2023-07-31T13:00:26;31.60;38.00
33827;DHT22;20128;45.582;5.298;2023-07-31T13:02:52;31.60;37.80
33827;DHT22;20128;45.582;5.298;2023-07-31T13:05:17;31.70;36.70
33827;DHT22;20128;45.582;5.298;2023-07-31T13:07:45;31.60;36.80
33827;DHT22;20128;45.582;5.298;2023-07-31T13:10:10;31.60;36.70
33827;DHT22;20128;45.582;5.298;2023-07-31T13:12:36;31.70;36.40
33827;DHT22;20128;45.582;5.298;2023-07-31T13:15:02;31.70;37.50
33827;DHT22;20128;45.582;5.298;2023-07-31T13:17:28;31.60;36.60
33827;DHT22;20128;45.582;5.298;2023-07-31T13:19:54;31.50;36.80
33827;DHT22;20128;45.582;5.298;2023-07-31T13:22:19;31.40;37.20
33827;DHT22;20128;45.582;5.298;2023-07-31T13:24:45;31.40;37.20
33827;DHT22;20128;45.582;5.298;2023-07-31T13:27:11;31.50;37.00
33827;DHT22;20128;45.582;5.298;2023-07-31T13:29:36;31.60;36.50
33827;DHT22;20128;45.582;5.298;2023-07-31T13:32:02;31.70;36.30
33827;DHT22;20128;45.582;5.298;2023-07-31T13:34:28;31.80;35.90
33827;DHT22;20128;45.582;5.298;2023-07-31T13:36:54;31.90;35.50
33827;DHT22;20128;45.582;5.298;2023-07-31T13:39:21;32.00;35.80
33827;DHT22;20128;45.582;5.298;2023-07-31T13:41:47;32.10;35.90
33827;DHT22;20128;45.582;5.298;2023-07-31T13:44:12;32.20;35.80
33827;DHT22;20128;45.582;5.298;2023-07-31T13:46:38;32.20;35.60
33827;DHT22;20128;45.582;5.298;2023-07-31T13:49:04;32.30;35.60
33827;DHT22;20128;45.582;5.298;2023-07-31T13:51:29;32.40;35.70
33827;DHT22;20128;45.582;5.298;2023-07-31T13:53:55;32.50;35.30
33827;DHT22;20128;45.582;5.298;2023-07-31T13:56:21;32.50;35.20
33827;DHT22;20128;45.582;5.298;2023-07-31T13:58:46;32.40;35.30
33827;DHT22;20128;45.582;5.298;2023-07-31T14:01:12;32.40;35.70
33827;DHT22;20128;45.582;5.298;2023-07-31T14:03:38;32.50;36.10
33827;DHT22;20128;45.582;5.298;2023-07-31T14:06:03;32.50;36.00
33827;DHT22;20128;45.582;5.298;2023-07-31T14:08:30;32.50;36.00
33827;DHT22;20128;45.582;5.298;2023-07-31T14:10:56;32.50;35.90
33827;DHT22;20128;45.582;5.298;2023-07-31T14:13:22;32.40;35.40
33827;DHT22;20128;45.582;5.298;2023-07-31T14:15:48;32.40;35.80
33827;DHT22;20128;45.582;5.298;2023-07-31T14:18:13;32.50;36.10
33827;DHT22;20128;45.582;5.298;2023-07-31T14:20:39;32.50;36.00
33827;DHT22;20128;45.582;5.298;2023-07-31T14:23:05;32.50;36.10
33827;DHT22;20128;45.582;5.298;2023-07-31T14:25:30;32.60;35.90
33827;DHT22;20128;45.582;5.298;2023-07-31T14:27:56;32.70;36.10
33827;DHT22;20128;45.582;5.298;2023-07-31T14:30:22;32.80;36.50
33827;DHT22;20128;45.582;5.298;2023-07-31T14:32:48;32.80;35.70
33827;DHT22;20128;45.582;5.298;2023-07-31T14:35:14;32.80;35.60
33827;DHT22;20128;45.582;5.298;2023-07-31T14:37:41;32.80;35.70
33827;DHT22;20128;45.582;5.298;2023-07-31T14:40:11;32.80;35.50
33827;DHT22;20128;45.582;5.298;2023-07-31T14:42:38;32.90;35.50
33827;DHT22;20128;45.582;5.298;2023-07-31T14:45:04;32.90;35.60
33827;DHT22;20128;45.582;5.298;2023-07-31T14:47:30;33.00;35.80
33827;DHT22;20128;45.582;5.298;2023-07-31T14:49:58;33.10;35.90
33827;DHT22;20128;45.582;5.298;2023-07-31T14:52:24;33.10;35.70
33827;DHT22;20128;45.582;5.298;2023-07-31T14:54:49;33.10;35.70
33827;DHT22;20128;45.582;5.298;2023-07-31T14:57:15;33.10;35.50
33827;DHT22;20128;45.582;5.298;2023-07-31T14:59:41;33.10;35.50
33827;DHT22;20128;45.582;5.298;2023-07-31T15:02:08;33.10;34.90
33827;DHT22;20128;45.582;5.298;2023-07-31T15:04:35;33.10;35.40
33827;DHT22;20128;45.582;5.298;2023-07-31T15:07:00;33.10;35.20
33827;DHT22;20128;45.582;5.298;2023-07-31T15:09:26;33.10;35.30
33827;DHT22;20128;45.582;5.298;2023-07-31T15:11:52;33.10;35.70
33827;DHT22;20128;45.582;5.298;2023-07-31T15:14:18;33.10;35.60
33827;DHT22;20128;45.582;5.298;2023-07-31T15:16:44;33.10;35.50
33827;DHT22;20128;45.582;5.298;2023-07-31T15:19:09;33.10;35.40
33827;DHT22;20128;45.582;5.298;2023-07-31T15:21:36;33.10;35.50
33827;DHT22;20128;45.582;5.298;2023-07-31T15:24:02;33.00;35.90
33827;DHT22;20128;45.582;5.298;2023-07-31T15:26:28;32.80;35.90
33827;DHT22;20128;45.582;5.298;2023-07-31T15:29:05;32.70;36.30
33827;DHT22;20128;45.582;5.298;2023-07-31T15:31:40;32.70;36.40
33827;DHT22;20128;45.582;5.298;2023-07-31T15:34:06;32.60;36.80
33827;DHT22;20128;45.582;5.298;2023-07-31T15:36:32;32.60;37.00
33827;DHT22;20128;45.582;5.298;2023-07-31T15:38:58;32.60;36.60
33827;DHT22;20128;45.582;5.298;2023-07-31T15:41:24;32.80;36.70
33827;DHT22;20128;45.582;5.298;2023-07-31T15:43:50;32.80;36.30
33827;DHT22;20128;45.582;5.298;2023-07-31T15:46:17;32.80;36.20